sensor_id;sensor_type;location;lat;lon;timestamp;P1;durP1;ratioP1;P2;durP2;ratioP2
43857;SDS011;29507;51.284;5.758;2023-02-08T00:01:16;14.98;;;5.93;;
43857;SDS011;29507;51.284;5.758;2023-02-08T00:06:09;14.13;;;6.10;;
43857;SDS011;29507;51.284;5.758;2023-02-08T00:08:36;16.52;;;6.18;;
43857;SDS011;29507;51.284;5.758;2023-02-08T00:11:02;14.80;;;5.78;;
43857;SDS011;29507;51.284;5.758;2023-02-08T00:13:28;11.77;;;5.82;;
43857;SDS011;29507;51.284;5.758;2023-02-08T00:15:54;11.38;;;5.43;;
43857;SDS011;29507;51.284;5.758;2023-02-08T00:18:20;13.13;;;5.15;;
43857;SDS011;29507;51.284;5.758;2023-02-08T00:20:46;12.00;;;5.60;;
43857;SDS011;29507;51.284;5.758;2023-02-08T00:23:12;11.35;;;5.35;;
43857;SDS011;29507;51.284;5.758;2023-02-08T00:25:38;13.10;;;5.32;;
43857;SDS011;29507;51.284;5.758;2023-02-08T00:28:05;10.82;;;4.97;;
43857;SDS011;29507;51.284;5.758;2023-02-08T00:30:32;13.02;;;5.22;;
43857;SDS011;29507;51.284;5.758;2023-02-08T00:32:59;11.45;;;5.50;;
43857;SDS011;29507;51.284;5.758;2023-02-08T00:35:26;10.50;;;5.10;;
43857;SDS011;29507;51.284;5.758;2023-02-08T00:37:52;13.52;;;5.53;;
43857;SDS011;29507;51.284;5.758;2023-02-08T00:40:17;15.15;;;5.35;;
43857;SDS011;29507;51.284;5.758;2023-02-08T00:42:43;13.73;;;5.93;;
43857;SDS011;29507;51.284;5.758;2023-02-08T00:45:09;12.13;;;5.25;;
43857;SDS011;29507;51.284;5.758;2023-02-08T00:47:34;12.18;;;5.97;;
43857;SDS011;29507;51.284;5.758;2023-02-08T00:50:00;10.88;;;5.10;;
43857;SDS011;29507;51.284;5.758;2023-02-08T00:52:26;12.45;;;5.35;;
43857;SDS011;29507;51.284;5.758;2023-02-08T00:54:52;16.38;;;5.70;;
43857;SDS011;29507;51.284;5.758;2023-02-08T00:57:17;11.40;;;5.53;;
43857;SDS011;29507;51.284;5.758;2023-02-08T00:59:43;14.20;;;5.20;;
43857;SDS011;29507;51.284;5.758;2023-02-08T01:02:09;13.63;;;5.32;;
43857;SDS011;29507;51.284;5.758;2023-02-08T01:04:34;12.65;;;5.10;;
43857;SDS011;29507;51.284;5.758;2023-02-08T01:07:00;14.10;;;5.40;;
43857;SDS011;29507;51.284;5.758;2023-02-08T01:09:26;10.63;;;5.78;;
43857;SDS011;29507;51.284;5.758;2023-02-08T01:11:51;10.10;;;5.20;;
43857;SDS011;29507;51.284;5.758;2023-02-08T01:14:17;9.55;;;4.90;;
43857;SDS011;29507;51.284;5.758;2023-02-08T01:16:43;12.85;;;5.35;;
43857;SDS011;29507;51.284;5.758;2023-02-08T01:19:09;11.43;;;4.68;;
43857;SDS011;29507;51.284;5.758;2023-02-08T01:21:36;12.52;;;5.63;;
43857;SDS011;29507;51.284;5.758;2023-02-08T01:24:04;16.00;;;5.78;;
43857;SDS011;29507;51.284;5.758;2023-02-08T01:26:30;10.65;;;4.85;;
43857;SDS011;29507;51.284;5.758;2023-02-08T01:28:56;18.85;;;5.88;;
43857;SDS011;29507;51.284;5.758;2023-02-08T01:31:27;12.45;;;5.18;;
43857;SDS011;29507;51.284;5.758;2023-02-08T01:33:55;11.35;;;5.25;;
43857;SDS011;29507;51.284;5.758;2023-02-08T01:36:21;13.48;;;5.88;;
43857;SDS011;29507;51.284;5.758;2023-02-08T01:38:47;13.00;;;6.63;;
43857;SDS011;29507;51.284;5.758;2023-02-08T01:41:15;14.52;;;5.88;;
43857;SDS011;29507;51.284;5.758;2023-02-08T01:46:32;15.18;;;5.93;;
43857;SDS011;29507;51.284;5.758;2023-02-08T01:54:23;14.40;;;6.10;;
43857;SDS011;29507;51.284;5.758;2023-02-08T01:59:28;17.63;;;5.25;;
43857;SDS011;29507;51.284;5.758;2023-02-08T02:02:01;15.55;;;5.72;;
43857;SDS011;29507;51.284;5.758;2023-02-08T02:04:28;21.45;;;6.60;;
43857;SDS011;29507;51.284;5.758;2023-02-08T02:06:55;11.27;;;5.25;;
43857;SDS011;29507;51.284;5.758;2023-02-08T02:11:57;21.58;;;5.70;;
43857;SDS011;29507;51.284;5.758;2023-02-08T02:14:24;16.48;;;5.60;;
43857;SDS011;29507;51.284;5.758;2023-02-08T02:16:50;16.45;;;6.95;;
43857;SDS011;29507;51.284;5.758;2023-02-08T02:19:28;15.70;;;6.22;;
43857;SDS011;29507;51.284;5.758;2023-02-08T02:35:55;18.08;;;5.30;;
43857;SDS011;29507;51.284;5.758;2023-02-08T02:38:30;17.05;;;6.00;;
43857;SDS011;29507;51.284;5.758;2023-02-08T02:53:00;17.48;;;5.93;;
43857;SDS011;29507;51.284;5.758;2023-02-08T02:55:31;15.25;;;5.63;;
43857;SDS011;29507;51.284;5.758;2023-02-08T02:58:02;11.63;;;6.13;;
43857;SDS011;29507;51.284;5.758;2023-02-08T03:00:30;15.27;;;5.60;;
43857;SDS011;29507;51.284;5.758;2023-02-08T03:02:57;13.43;;;5.18;;
43857;SDS011;29507;51.284;5.758;2023-02-08T03:05:23;13.85;;;5.40;;
43857;SDS011;29507;51.284;5.758;2023-02-08T03:08:00;17.90;;;6.43;;
43857;SDS011;29507;51.284;5.758;2023-02-08T03:13:14;14.93;;;5.95;;
43857;SDS011;29507;51.284;5.758;2023-02-08T03:16:01;12.70;;;5.07;;
43857;SDS011;29507;51.284;5.758;2023-02-08T03:18:58;12.68;;;5.53;;
43857;SDS011;29507;51.284;5.758;2023-02-08T03:21:53;10.60;;;4.72;;
43857;SDS011;29507;51.284;5.758;2023-02-08T03:27:18;15.23;;;5.55;;
43857;SDS011;29507;51.284;5.758;2023-02-08T03:32:21;15.95;;;6.30;;
43857;SDS011;29507;51.284;5.758;2023-02-08T03:35:52;12.27;;;5.20;;
43857;SDS011;29507;51.284;5.758;2023-02-08T03:38:06;14.85;;;5.25;;
43857;SDS011;29507;51.284;5.758;2023-02-08T03:40:43;13.45;;;6.07;;
43857;SDS011;29507;51.284;5.758;2023-02-08T03:43:13;15.50;;;5.30;;
43857;SDS011;29507;51.284;5.758;2023-02-08T03:45:43;12.27;;;6.00;;
43857;SDS011;29507;51.284;5.758;2023-02-08T03:48:14;12.32;;;5.10;;
43857;SDS011;29507;51.284;5.758;2023-02-08T03:50:42;13.18;;;5.18;;
43857;SDS011;29507;51.284;5.758;2023-02-08T03:53:14;15.10;;;7.05;;
43857;SDS011;29507;51.284;5.758;2023-02-08T03:55:44;13.80;;;5.30;;
43857;SDS011;29507;51.284;5.758;2023-02-08T03:58:16;16.45;;;5.75;;
43857;SDS011;29507;51.284;5.758;2023-02-08T04:00:48;12.48;;;5.93;;
43857;SDS011;29507;51.284;5.758;2023-02-08T04:03:21;11.52;;;5.78;;
43857;SDS011;29507;51.284;5.758;2023-02-08T04:05:50;13.05;;;5.57;;
43857;SDS011;29507;51.284;5.758;2023-02-08T04:08:16;14.18;;;5.60;;
43857;SDS011;29507;51.284;5.758;2023-02-08T04:10:42;14.35;;;5.05;;
43857;SDS011;29507;51.284;5.758;2023-02-08T04:13:09;12.70;;;4.85;;
43857;SDS011;29507;51.284;5.758;2023-02-08T04:15:35;12.70;;;5.45;;
43857;SDS011;29507;51.284;5.758;2023-02-08T04:18:00;10.18;;;5.32;;
43857;SDS011;29507;51.284;5.758;2023-02-08T04:20:26;15.77;;;5.70;;
43857;SDS011;29507;51.284;5.758;2023-02-08T04:22:52;10.95;;;5.25;;
43857;SDS011;29507;51.284;5.758;2023-02-08T04:25:17;14.07;;;6.07;;
43857;SDS011;29507;51.284;5.758;2023-02-08T04:27:43;14.13;;;5.70;;
43857;SDS011;29507;51.284;5.758;2023-02-08T04:30:09;13.02;;;5.82;;
43857;SDS011;29507;51.284;5.758;2023-02-08T04:32:35;10.90;;;5.20;;
43857;SDS011;29507;51.284;5.758;2023-02-08T04:35:01;11.50;;;5.15;;
43857;SDS011;29507;51.284;5.758;2023-02-08T04:37:26;13.40;;;5.10;;
43857;SDS011;29507;51.284;5.758;2023-02-08T04:39:52;13.18;;;5.78;;
43857;SDS011;29507;51.284;5.758;2023-02-08T04:42:17;10.52;;;4.65;;
43857;SDS011;29507;51.284;5.758;2023-02-08T04:44:43;13.00;;;6.25;;
43857;SDS011;29507;51.284;5.758;2023-02-08T04:47:09;13.25;;;5.93;;
43857;SDS011;29507;51.284;5.758;2023-02-08T04:49:34;13.32;;;5.97;;
43857;SDS011;29507;51.284;5.758;2023-02-08T04:52:00;15.40;;;5.40;;
43857;SDS011;29507;51.284;5.758;2023-02-08T04:54:25;9.85;;;5.20;;
43857;SDS011;29507;51.284;5.758;2023-02-08T04:56:51;14.10;;;5.78;;
43857;SDS011;29507;51.284;5.758;2023-02-08T04:59:16;14.90;;;5.63;;
43857;SDS011;29507;51.284;5.758;2023-02-08T05:01:42;14.80;;;5.15;;
43857;SDS011;29507;51.284;5.758;2023-02-08T05:04:08;11.95;;;5.63;;
43857;SDS011;29507;51.284;5.758;2023-02-08T05:06:34;15.23;;;5.32;;
43857;SDS011;29507;51.284;5.758;2023-02-08T05:09:00;16.15;;;6.32;;
43857;SDS011;29507;51.284;5.758;2023-02-08T05:11:26;13.48;;;5.10;;
43857;SDS011;29507;51.284;5.758;2023-02-08T05:13:51;18.40;;;5.80;;
43857;SDS011;29507;51.284;5.758;2023-02-08T05:16:18;11.60;;;5.55;;
43857;SDS011;29507;51.284;5.758;2023-02-08T05:18:44;14.40;;;6.40;;
43857;SDS011;29507;51.284;5.758;2023-02-08T05:21:10;13.90;;;6.25;;
43857;SDS011;29507;51.284;5.758;2023-02-08T05:23:36;16.80;;;6.25;;
43857;SDS011;29507;51.284;5.758;2023-02-08T05:26:05;17.95;;;6.28;;
43857;SDS011;29507;51.284;5.758;2023-02-08T05:28:32;13.25;;;5.03;;
43857;SDS011;29507;51.284;5.758;2023-02-08T05:30:58;17.42;;;6.63;;
43857;SDS011;29507;51.284;5.758;2023-02-08T05:33:23;13.90;;;5.63;;
43857;SDS011;29507;51.284;5.758;2023-02-08T05:35:49;14.18;;;5.93;;
43857;SDS011;29507;51.284;5.758;2023-02-08T05:38:14;14.32;;;6.30;;
43857;SDS011;29507;51.284;5.758;2023-02-08T05:40:40;15.75;;;5.35;;
43857;SDS011;29507;51.284;5.758;2023-02-08T05:43:06;17.40;;;6.03;;
43857;SDS011;29507;51.284;5.758;2023-02-08T05:45:31;14.60;;;6.97;;
43857;SDS011;29507;51.284;5.758;2023-02-08T05:47:57;18.60;;;6.63;;
43857;SDS011;29507;51.284;5.758;2023-02-08T05:50:22;14.05;;;5.57;;
43857;SDS011;29507;51.284;5.758;2023-02-08T05:52:48;13.18;;;6.35;;
43857;SDS011;29507;51.284;5.758;2023-02-08T05:55:13;13.32;;;5.55;;
43857;SDS011;29507;51.284;5.758;2023-02-08T05:57:39;15.38;;;6.07;;
43857;SDS011;29507;51.284;5.758;2023-02-08T06:00:05;12.45;;;5.03;;
43857;SDS011;29507;51.284;5.758;2023-02-08T06:02:31;15.93;;;5.93;;
43857;SDS011;29507;51.284;5.758;2023-02-08T06:04:58;18.48;;;5.75;;
43857;SDS011;29507;51.284;5.758;2023-02-08T06:07:23;14.43;;;5.47;;
43857;SDS011;29507;51.284;5.758;2023-02-08T06:09:49;10.93;;;5.85;;
43857;SDS011;29507;51.284;5.758;2023-02-08T06:12:15;14.18;;;4.80;;
43857;SDS011;29507;51.284;5.758;2023-02-08T06:14:40;14.35;;;6.28;;
43857;SDS011;29507;51.284;5.758;2023-02-08T06:17:06;15.35;;;5.75;;
43857;SDS011;29507;51.284;5.758;2023-02-08T06:19:31;13.27;;;5.55;;
43857;SDS011;29507;51.284;5.758;2023-02-08T06:21:57;14.02;;;6.43;;
43857;SDS011;29507;51.284;5.758;2023-02-08T06:24:22;14.40;;;5.97;;
43857;SDS011;29507;51.284;5.758;2023-02-08T06:26:49;11.82;;;5.75;;
43857;SDS011;29507;51.284;5.758;2023-02-08T06:29:14;15.02;;;5.97;;
43857;SDS011;29507;51.284;5.758;2023-02-08T06:31:40;15.20;;;5.97;;
43857;SDS011;29507;51.284;5.758;2023-02-08T06:34:06;15.98;;;6.45;;
43857;SDS011;29507;51.284;5.758;2023-02-08T06:36:31;17.48;;;7.38;;
43857;SDS011;29507;51.284;5.758;2023-02-08T06:38:57;11.30;;;5.28;;
43857;SDS011;29507;51.284;5.758;2023-02-08T06:41:23;14.60;;;5.65;;
43857;SDS011;29507;51.284;5.758;2023-02-08T06:43:49;14.02;;;5.88;;
43857;SDS011;29507;51.284;5.758;2023-02-08T06:46:14;13.80;;;5.90;;
43857;SDS011;29507;51.284;5.758;2023-02-08T06:48:40;21.30;;;7.45;;
43857;SDS011;29507;51.284;5.758;2023-02-08T06:51:06;16.83;;;6.13;;
43857;SDS011;29507;51.284;5.758;2023-02-08T06:53:32;18.63;;;7.18;;
43857;SDS011;29507;51.284;5.758;2023-02-08T06:55:57;17.58;;;7.18;;
43857;SDS011;29507;51.284;5.758;2023-02-08T06:58:23;17.60;;;7.38;;
43857;SDS011;29507;51.284;5.758;2023-02-08T07:00:49;18.35;;;6.82;;
43857;SDS011;29507;51.284;5.758;2023-02-08T07:03:14;21.13;;;7.30;;
43857;SDS011;29507;51.284;5.758;2023-02-08T07:05:41;15.73;;;7.18;;
43857;SDS011;29507;51.284;5.758;2023-02-08T07:08:07;19.90;;;7.65;;
43857;SDS011;29507;51.284;5.758;2023-02-08T07:10:34;21.25;;;8.20;;
43857;SDS011;29507;51.284;5.758;2023-02-08T07:13:01;18.33;;;7.32;;
43857;SDS011;29507;51.284;5.758;2023-02-08T07:15:27;20.27;;;7.55;;
43857;SDS011;29507;51.284;5.758;2023-02-08T07:17:54;16.52;;;6.57;;
43857;SDS011;29507;51.284;5.758;2023-02-08T07:20:20;19.00;;;6.80;;
43857;SDS011;29507;51.284;5.758;2023-02-08T07:22:46;19.20;;;6.90;;
43857;SDS011;29507;51.284;5.758;2023-02-08T07:25:11;16.13;;;7.35;;
43857;SDS011;29507;51.284;5.758;2023-02-08T07:27:37;20.25;;;7.15;;
43857;SDS011;29507;51.284;5.758;2023-02-08T07:30:03;16.35;;;6.15;;
43857;SDS011;29507;51.284;5.758;2023-02-08T07:32:29;20.15;;;7.40;;
43857;SDS011;29507;51.284;5.758;2023-02-08T07:34:55;18.92;;;7.60;;
43857;SDS011;29507;51.284;5.758;2023-02-08T07:37:20;16.05;;;6.55;;
43857;SDS011;29507;51.284;5.758;2023-02-08T07:39:46;16.63;;;6.60;;
43857;SDS011;29507;51.284;5.758;2023-02-08T07:42:11;14.93;;;7.70;;
43857;SDS011;29507;51.284;5.758;2023-02-08T07:44:37;16.48;;;7.72;;
43857;SDS011;29507;51.284;5.758;2023-02-08T07:47:04;16.83;;;7.95;;
43857;SDS011;29507;51.284;5.758;2023-02-08T07:49:30;19.77;;;7.60;;
43857;SDS011;29507;51.284;5.758;2023-02-08T07:51:57;16.40;;;7.03;;
43857;SDS011;29507;51.284;5.758;2023-02-08T07:54:26;19.60;;;7.25;;
43857;SDS011;29507;51.284;5.758;2023-02-08T07:56:51;17.48;;;6.47;;
43857;SDS011;29507;51.284;5.758;2023-02-08T07:59:17;17.30;;;6.82;;
43857;SDS011;29507;51.284;5.758;2023-02-08T08:01:42;18.05;;;7.45;;
43857;SDS011;29507;51.284;5.758;2023-02-08T08:04:08;17.30;;;6.50;;
43857;SDS011;29507;51.284;5.758;2023-02-08T08:06:33;14.95;;;6.85;;
43857;SDS011;29507;51.284;5.758;2023-02-08T08:09:00;20.40;;;7.20;;
43857;SDS011;29507;51.284;5.758;2023-02-08T08:11:25;17.30;;;7.22;;
43857;SDS011;29507;51.284;5.758;2023-02-08T08:13:51;19.38;;;7.30;;
43857;SDS011;29507;51.284;5.758;2023-02-08T08:16:16;15.93;;;7.28;;
43857;SDS011;29507;51.284;5.758;2023-02-08T08:18:43;14.73;;;7.05;;
43857;SDS011;29507;51.284;5.758;2023-02-08T08:21:12;17.65;;;7.57;;
43857;SDS011;29507;51.284;5.758;2023-02-08T08:23:39;17.42;;;7.50;;
43857;SDS011;29507;51.284;5.758;2023-02-08T08:26:05;14.60;;;6.65;;
43857;SDS011;29507;51.284;5.758;2023-02-08T08:28:36;17.02;;;6.97;;
43857;SDS011;29507;51.284;5.758;2023-02-08T08:31:02;13.43;;;6.95;;
43857;SDS011;29507;51.284;5.758;2023-02-08T08:33:27;14.05;;;6.13;;
43857;SDS011;29507;51.284;5.758;2023-02-08T08:35:53;14.88;;;7.22;;
43857;SDS011;29507;51.284;5.758;2023-02-08T08:38:19;16.15;;;6.88;;
43857;SDS011;29507;51.284;5.758;2023-02-08T08:40:44;17.45;;;7.57;;
43857;SDS011;29507;51.284;5.758;2023-02-08T08:43:10;17.27;;;6.35;;
43857;SDS011;29507;51.284;5.758;2023-02-08T08:45:35;22.25;;;6.70;;
43857;SDS011;29507;51.284;5.758;2023-02-08T08:48:04;16.00;;;6.78;;
43857;SDS011;29507;51.284;5.758;2023-02-08T08:50:30;15.85;;;6.60;;
43857;SDS011;29507;51.284;5.758;2023-02-08T08:52:55;16.63;;;7.38;;
43857;SDS011;29507;51.284;5.758;2023-02-08T08:55:21;13.50;;;6.90;;
43857;SDS011;29507;51.284;5.758;2023-02-08T08:57:47;14.73;;;6.47;;
43857;SDS011;29507;51.284;5.758;2023-02-08T09:00:12;14.98;;;7.55;;
43857;SDS011;29507;51.284;5.758;2023-02-08T09:02:38;14.23;;;7.40;;
43857;SDS011;29507;51.284;5.758;2023-02-08T09:05:04;15.57;;;7.35;;
43857;SDS011;29507;51.284;5.758;2023-02-08T09:07:31;19.67;;;7.88;;
43857;SDS011;29507;51.284;5.758;2023-02-08T09:09:57;15.07;;;6.25;;
43857;SDS011;29507;51.284;5.758;2023-02-08T09:12:23;12.95;;;6.22;;
43857;SDS011;29507;51.284;5.758;2023-02-08T09:14:48;13.75;;;7.22;;
43857;SDS011;29507;51.284;5.758;2023-02-08T09:17:14;18.98;;;7.68;;
43857;SDS011;29507;51.284;5.758;2023-02-08T09:19:39;14.50;;;7.20;;
43857;SDS011;29507;51.284;5.758;2023-02-08T09:22:06;14.65;;;6.88;;
43857;SDS011;29507;51.284;5.758;2023-02-08T09:24:32;15.65;;;7.25;;
43857;SDS011;29507;51.284;5.758;2023-02-08T09:26:58;16.33;;;7.47;;
43857;SDS011;29507;51.284;5.758;2023-02-08T09:29:24;16.60;;;6.50;;
43857;SDS011;29507;51.284;5.758;2023-02-08T09:31:53;14.25;;;6.95;;
43857;SDS011;29507;51.284;5.758;2023-02-08T09:34:19;19.80;;;7.60;;
43857;SDS011;29507;51.284;5.758;2023-02-08T09:36:44;14.23;;;6.47;;
43857;SDS011;29507;51.284;5.758;2023-02-08T09:39:14;13.93;;;7.35;;
43857;SDS011;29507;51.284;5.758;2023-02-08T09:47:17;13.40;;;5.90;;
43857;SDS011;29507;51.284;5.758;2023-02-08T09:50:00;15.57;;;6.80;;
43857;SDS011;29507;51.284;5.758;2023-02-08T09:57:58;17.08;;;6.57;;
43857;SDS011;29507;51.284;5.758;2023-02-08T10:00:34;16.65;;;6.07;;
43857;SDS011;29507;51.284;5.758;2023-02-08T10:03:05;13.88;;;6.20;;
43857;SDS011;29507;51.284;5.758;2023-02-08T10:06:01;10.18;;;5.15;;
43857;SDS011;29507;51.284;5.758;2023-02-08T10:08:32;14.07;;;6.20;;
43857;SDS011;29507;51.284;5.758;2023-02-08T10:21:53;13.07;;;5.53;;
43857;SDS011;29507;51.284;5.758;2023-02-08T10:27:58;10.27;;;5.07;;
43857;SDS011;29507;51.284;5.758;2023-02-08T10:30:38;11.05;;;4.70;;
43857;SDS011;29507;51.284;5.758;2023-02-08T10:33:11;12.60;;;5.28;;
43857;SDS011;29507;51.284;5.758;2023-02-08T10:35:47;11.20;;;4.88;;
43857;SDS011;29507;51.284;5.758;2023-02-08T10:40:55;10.13;;;4.90;;
43857;SDS011;29507;51.284;5.758;2023-02-08T10:49:36;10.93;;;4.13;;
43857;SDS011;29507;51.284;5.758;2023-02-08T10:51:40;10.80;;;4.43;;
43857;SDS011;29507;51.284;5.758;2023-02-08T10:54:09;8.35;;;4.10;;
43857;SDS011;29507;51.284;5.758;2023-02-08T10:56:44;7.53;;;3.95;;
43857;SDS011;29507;51.284;5.758;2023-02-08T10:59:19;9.45;;;3.92;;
43857;SDS011;29507;51.284;5.758;2023-02-08T11:01:48;8.82;;;3.75;;
43857;SDS011;29507;51.284;5.758;2023-02-08T11:04:15;7.85;;;4.05;;
43857;SDS011;29507;51.284;5.758;2023-02-08T11:06:41;10.57;;;3.60;;
43857;SDS011;29507;51.284;5.758;2023-02-08T11:09:27;7.28;;;3.65;;
43857;SDS011;29507;51.284;5.758;2023-02-08T11:11:55;8.55;;;3.72;;
43857;SDS011;29507;51.284;5.758;2023-02-08T11:14:24;7.38;;;3.25;;
43857;SDS011;29507;51.284;5.758;2023-02-08T11:16:55;7.60;;;3.17;;
43857;SDS011;29507;51.284;5.758;2023-02-08T11:19:32;6.75;;;3.17;;
43857;SDS011;29507;51.284;5.758;2023-02-08T11:22:11;6.05;;;2.95;;
43857;SDS011;29507;51.284;5.758;2023-02-08T11:24:40;5.85;;;3.22;;
43857;SDS011;29507;51.284;5.758;2023-02-08T11:30:09;8.20;;;3.63;;
43857;SDS011;29507;51.284;5.758;2023-02-08T11:32:41;6.10;;;3.03;;
43857;SDS011;29507;51.284;5.758;2023-02-08T11:37:49;8.02;;;3.10;;
43857;SDS011;29507;51.284;5.758;2023-02-08T11:40:26;5.80;;;2.53;;
43857;SDS011;29507;51.284;5.758;2023-02-08T11:42:59;7.50;;;2.55;;
43857;SDS011;29507;51.284;5.758;2023-02-08T11:45:33;4.82;;;2.30;;
43857;SDS011;29507;51.284;5.758;2023-02-08T11:48:00;6.60;;;2.80;;
43857;SDS011;29507;51.284;5.758;2023-02-08T11:50:37;7.20;;;3.20;;
43857;SDS011;29507;51.284;5.758;2023-02-08T11:53:10;6.35;;;3.15;;
43857;SDS011;29507;51.284;5.758;2023-02-08T11:55:50;7.05;;;3.35;;
43857;SDS011;29507;51.284;5.758;2023-02-08T11:58:27;6.22;;;2.80;;
43857;SDS011;29507;51.284;5.758;2023-02-08T12:01:03;7.13;;;3.20;;
43857;SDS011;29507;51.284;5.758;2023-02-08T12:03:39;9.48;;;3.47;;
43857;SDS011;29507;51.284;5.758;2023-02-08T12:15:06;7.72;;;3.15;;
43857;SDS011;29507;51.284;5.758;2023-02-08T12:18:18;7.30;;;3.75;;
43857;SDS011;29507;51.284;5.758;2023-02-08T12:21:03;5.28;;;3.05;;
43857;SDS011;29507;51.284;5.758;2023-02-08T12:26:09;6.90;;;3.50;;
43857;SDS011;29507;51.284;5.758;2023-02-08T12:31:23;5.88;;;2.83;;
43857;SDS011;29507;51.284;5.758;2023-02-08T12:40:14;7.82;;;3.63;;
43857;SDS011;29507;51.284;5.758;2023-02-08T12:43:15;6.07;;;3.13;;
43857;SDS011;29507;51.284;5.758;2023-02-08T12:52:21;7.38;;;3.00;;
43857;SDS011;29507;51.284;5.758;2023-02-08T12:57:29;8.02;;;4.47;;
43857;SDS011;29507;51.284;5.758;2023-02-08T13:00:04;6.30;;;3.75;;
43857;SDS011;29507;51.284;5.758;2023-02-08T13:05:32;7.90;;;2.58;;
43857;SDS011;29507;51.284;5.758;2023-02-08T13:08:12;4.55;;;2.25;;
43857;SDS011;29507;51.284;5.758;2023-02-08T13:10:52;3.83;;;1.80;;
43857;SDS011;29507;51.284;5.758;2023-02-08T13:13:23;4.18;;;2.08;;
43857;SDS011;29507;51.284;5.758;2023-02-08T13:16:26;5.40;;;2.30;;
43857;SDS011;29507;51.284;5.758;2023-02-08T13:18:53;3.45;;;1.90;;
43857;SDS011;29507;51.284;5.758;2023-02-08T13:21:31;4.43;;;2.03;;
43857;SDS011;29507;51.284;5.758;2023-02-08T13:24:06;6.70;;;2.80;;
43857;SDS011;29507;51.284;5.758;2023-02-08T13:26:50;4.45;;;2.28;;
43857;SDS011;29507;51.284;5.758;2023-02-08T13:29:16;5.55;;;2.63;;
43857;SDS011;29507;51.284;5.758;2023-02-08T13:31:44;5.38;;;2.28;;
43857;SDS011;29507;51.284;5.758;2023-02-08T13:36:56;7.30;;;3.95;;
43857;SDS011;29507;51.284;5.758;2023-02-08T13:42:07;4.50;;;2.10;;
43857;SDS011;29507;51.284;5.758;2023-02-08T13:45:02;7.72;;;2.45;;
43857;SDS011;29507;51.284;5.758;2023-02-08T13:47:31;4.43;;;2.20;;
43857;SDS011;29507;51.284;5.758;2023-02-08T13:50:17;8.30;;;2.20;;
43857;SDS011;29507;51.284;5.758;2023-02-08T13:53:08;5.63;;;2.05;;
43857;SDS011;29507;51.284;5.758;2023-02-08T13:55:39;10.75;;;3.13;;
43857;SDS011;29507;51.284;5.758;2023-02-08T13:58:27;7.30;;;2.17;;
43857;SDS011;29507;51.284;5.758;2023-02-08T14:01:21;4.28;;;2.03;;
43857;SDS011;29507;51.284;5.758;2023-02-08T14:06:33;5.55;;;2.08;;
43857;SDS011;29507;51.284;5.758;2023-02-08T14:09:05;6.05;;;2.65;;
43857;SDS011;29507;51.284;5.758;2023-02-08T14:12:02;3.58;;;1.70;;
43857;SDS011;29507;51.284;5.758;2023-02-08T14:15:25;5.22;;;1.90;;
43857;SDS011;29507;51.284;5.758;2023-02-08T14:17:44;4.60;;;1.98;;
43857;SDS011;29507;51.284;5.758;2023-02-08T14:20:25;4.47;;;1.70;;
43857;SDS011;29507;51.284;5.758;2023-02-08T14:22:57;4.50;;;1.67;;
43857;SDS011;29507;51.284;5.758;2023-02-08T14:25:26;4.88;;;1.73;;
43857;SDS011;29507;51.284;5.758;2023-02-08T14:28:01;3.63;;;1.80;;
43857;SDS011;29507;51.284;5.758;2023-02-08T14:30:28;5.00;;;1.95;;
43857;SDS011;29507;51.284;5.758;2023-02-08T14:35:34;4.68;;;1.85;;
43857;SDS011;29507;51.284;5.758;2023-02-08T14:40:51;4.20;;;2.20;;
43857;SDS011;29507;51.284;5.758;2023-02-08T14:43:34;8.57;;;2.20;;
43857;SDS011;29507;51.284;5.758;2023-02-08T14:49:16;4.65;;;2.00;;
43857;SDS011;29507;51.284;5.758;2023-02-08T14:51:50;14.13;;;2.22;;
43857;SDS011;29507;51.284;5.758;2023-02-08T14:54:22;6.65;;;2.05;;
43857;SDS011;29507;51.284;5.758;2023-02-08T14:57:03;4.75;;;2.03;;
43857;SDS011;29507;51.284;5.758;2023-02-08T14:59:32;7.82;;;2.33;;
43857;SDS011;29507;51.284;5.758;2023-02-08T15:02:00;8.02;;;2.80;;
43857;SDS011;29507;51.284;5.758;2023-02-08T15:04:43;9.23;;;2.47;;
43857;SDS011;29507;51.284;5.758;2023-02-08T15:10:04;6.22;;;2.45;;
43857;SDS011;29507;51.284;5.758;2023-02-08T15:12:36;4.88;;;2.38;;
43857;SDS011;29507;51.284;5.758;2023-02-08T15:15:04;6.50;;;2.35;;
43857;SDS011;29507;51.284;5.758;2023-02-08T15:20:03;7.88;;;2.63;;
43857;SDS011;29507;51.284;5.758;2023-02-08T15:22:34;7.65;;;2.30;;
43857;SDS011;29507;51.284;5.758;2023-02-08T15:25:12;7.72;;;2.50;;
43857;SDS011;29507;51.284;5.758;2023-02-08T15:27:53;7.72;;;2.30;;
43857;SDS011;29507;51.284;5.758;2023-02-08T15:33:07;5.97;;;2.03;;
43857;SDS011;29507;51.284;5.758;2023-02-08T15:35:38;4.30;;;2.15;;
43857;SDS011;29507;51.284;5.758;2023-02-08T15:38:04;4.68;;;2.25;;
43857;SDS011;29507;51.284;5.758;2023-02-08T15:40:58;11.20;;;2.42;;
43857;SDS011;29507;51.284;5.758;2023-02-08T15:43:34;4.95;;;2.35;;
43857;SDS011;29507;51.284;5.758;2023-02-08T15:46:03;4.53;;;2.00;;
43857;SDS011;29507;51.284;5.758;2023-02-08T15:51:08;6.18;;;2.50;;
43857;SDS011;29507;51.284;5.758;2023-02-08T15:53:37;6.00;;;2.63;;
43857;SDS011;29507;51.284;5.758;2023-02-08T15:56:05;8.27;;;1.80;;
43857;SDS011;29507;51.284;5.758;2023-02-08T15:58:35;6.45;;;2.00;;
43857;SDS011;29507;51.284;5.758;2023-02-08T16:01:04;5.65;;;2.63;;
43857;SDS011;29507;51.284;5.758;2023-02-08T16:03:32;6.13;;;1.98;;
43857;SDS011;29507;51.284;5.758;2023-02-08T16:06:01;6.40;;;2.50;;
43857;SDS011;29507;51.284;5.758;2023-02-08T16:08:33;7.30;;;2.83;;
43857;SDS011;29507;51.284;5.758;2023-02-08T16:11:08;7.60;;;2.78;;
43857;SDS011;29507;51.284;5.758;2023-02-08T16:13:40;7.30;;;3.08;;
43857;SDS011;29507;51.284;5.758;2023-02-08T16:18:44;6.03;;;2.67;;
43857;SDS011;29507;51.284;5.758;2023-02-08T16:21:24;8.38;;;3.10;;
43857;SDS011;29507;51.284;5.758;2023-02-08T16:28:59;9.43;;;3.10;;
43857;SDS011;29507;51.284;5.758;2023-02-08T16:31:29;10.55;;;3.63;;
43857;SDS011;29507;51.284;5.758;2023-02-08T16:34:04;6.65;;;2.83;;
43857;SDS011;29507;51.284;5.758;2023-02-08T16:36:41;8.40;;;3.15;;
43857;SDS011;29507;51.284;5.758;2023-02-08T16:44:25;6.72;;;3.33;;
43857;SDS011;29507;51.284;5.758;2023-02-08T16:46:53;9.68;;;3.85;;
43857;SDS011;29507;51.284;5.758;2023-02-08T16:49:18;7.30;;;3.67;;
43857;SDS011;29507;51.284;5.758;2023-02-08T16:51:44;8.55;;;4.22;;
43857;SDS011;29507;51.284;5.758;2023-02-08T16:54:14;8.60;;;3.50;;
43857;SDS011;29507;51.284;5.758;2023-02-08T16:56:45;8.70;;;3.78;;
43857;SDS011;29507;51.284;5.758;2023-02-08T16:59:13;7.27;;;3.10;;
43857;SDS011;29507;51.284;5.758;2023-02-08T17:01:40;9.05;;;4.10;;
43857;SDS011;29507;51.284;5.758;2023-02-08T17:04:10;8.85;;;4.15;;
43857;SDS011;29507;51.284;5.758;2023-02-08T17:06:36;8.63;;;3.63;;
43857;SDS011;29507;51.284;5.758;2023-02-08T17:09:04;8.55;;;3.67;;
43857;SDS011;29507;51.284;5.758;2023-02-08T17:14:06;8.93;;;3.80;;
43857;SDS011;29507;51.284;5.758;2023-02-08T17:16:33;8.15;;;3.22;;
43857;SDS011;29507;51.284;5.758;2023-02-08T17:19:00;12.02;;;3.92;;
43857;SDS011;29507;51.284;5.758;2023-02-08T17:21:26;7.80;;;4.30;;
43857;SDS011;29507;51.284;5.758;2023-02-08T17:23:53;7.93;;;3.13;;
43857;SDS011;29507;51.284;5.758;2023-02-08T17:26:20;7.25;;;3.35;;
43857;SDS011;29507;51.284;5.758;2023-02-08T17:28:47;7.15;;;3.58;;
43857;SDS011;29507;51.284;5.758;2023-02-08T17:31:14;9.30;;;3.58;;
43857;SDS011;29507;51.284;5.758;2023-02-08T17:33:40;7.57;;;3.33;;
43857;SDS011;29507;51.284;5.758;2023-02-08T17:36:08;10.27;;;4.85;;
43857;SDS011;29507;51.284;5.758;2023-02-08T17:38:35;8.05;;;3.53;;